sensor_id;sensor_type;location;lat;lon;timestamp;temperature;humidity
12438;DHT22;6283;51.330;12.374;2023-05-08T00:00:22;8.60;47.00
12438;DHT22;6283;51.330;12.374;2023-05-08T00:02:47;8.50;45.80
12438;DHT22;6283;51.330;12.374;2023-05-08T00:05:13;8.50;45.40
12438;DHT22;6283;51.330;12.374;2023-05-08T00:07:39;8.50;47.30
12438;DHT22;6283;51.330;12.374;2023-05-08T00:10:06;8.70;46.40
12438;DHT22;6283;51.330;12.374;2023-05-08T00:12:32;8.70;48.30
12438;DHT22;6283;51.330;12.374;2023-05-08T00:14:58;8.70;48.10
12438;DHT22;6283;51.330;12.374;2023-05-08T00:17:23;8.50;49.80
12438;DHT22;6283;51.330;12.374;2023-05-08T00:19:49;8.60;52.50
12438;DHT22;6283;51.330;12.374;2023-05-08T00:22:15;8.40;55.30
12438;DHT22;6283;51.330;12.374;2023-05-08T00:24:41;8.40;54.40
12438;DHT22;6283;51.330;12.374;2023-05-08T00:27:06;8.50;55.70
12438;DHT22;6283;51.330;12.374;2023-05-08T00:29:34;8.60;55.60
12438;DHT22;6283;51.330;12.374;2023-05-08T00:32:00;8.60;60.70
12438;DHT22;6283;51.330;12.374;2023-05-08T00:34:26;8.40;59.80
12438;DHT22;6283;51.330;12.374;2023-05-08T00:36:53;8.40;62.40
12438;DHT22;6283;51.330;12.374;2023-05-08T00:39:20;8.30;61.50
12438;DHT22;6283;51.330;12.374;2023-05-08T00:41:46;8.50;66.80
12438;DHT22;6283;51.330;12.374;2023-05-08T00:44:11;8.50;66.70
12438;DHT22;6283;51.330;12.374;2023-05-08T00:46:37;8.20;68.50
12438;DHT22;6283;51.330;12.374;2023-05-08T00:49:04;8.30;69.70
12438;DHT22;6283;51.330;12.374;2023-05-08T00:51:30;8.20;71.70
12438;DHT22;6283;51.330;12.374;2023-05-08T00:53:56;8.40;71.90
12438;DHT22;6283;51.330;12.374;2023-05-08T00:56:24;8.30;73.00
12438;DHT22;6283;51.330;12.374;2023-05-08T00:58:50;8.30;76.10
12438;DHT22;6283;51.330;12.374;2023-05-08T01:01:16;8.30;77.10
12438;DHT22;6283;51.330;12.374;2023-05-08T01:03:42;8.30;80.40
12438;DHT22;6283;51.330;12.374;2023-05-08T01:06:08;8.40;84.30
12438;DHT22;6283;51.330;12.374;2023-05-08T01:08:34;8.10;88.40
12438;DHT22;6283;51.330;12.374;2023-05-08T01:11:46;8.10;92.60
12438;DHT22;6283;51.330;12.374;2023-05-08T01:13:50;8.40;94.80
12438;DHT22;6283;51.330;12.374;2023-05-08T01:21:50;7.90;99.90
12438;DHT22;6283;51.330;12.374;2023-05-08T01:27:31;8.00;99.90
12438;DHT22;6283;51.330;12.374;2023-05-08T01:32:37;7.90;99.90
12438;DHT22;6283;51.330;12.374;2023-05-08T01:41:00;8.00;99.90
12438;DHT22;6283;51.330;12.374;2023-05-08T01:43:44;7.80;99.90
12438;DHT22;6283;51.330;12.374;2023-05-08T01:46:17;7.90;99.90
12438;DHT22;6283;51.330;12.374;2023-05-08T01:48:49;8.00;99.90
12438;DHT22;6283;51.330;12.374;2023-05-08T01:51:21;7.80;99.90
12438;DHT22;6283;51.330;12.374;2023-05-08T01:53:52;7.80;99.90
12438;DHT22;6283;51.330;12.374;2023-05-08T01:56:21;7.70;99.90
12438;DHT22;6283;51.330;12.374;2023-05-08T01:58:52;7.70;99.90
12438;DHT22;6283;51.330;12.374;2023-05-08T02:01:21;7.70;99.90
12438;DHT22;6283;51.330;12.374;2023-05-08T02:03:48;7.80;99.90
12438;DHT22;6283;51.330;12.374;2023-05-08T02:06:16;7.60;99.90
12438;DHT22;6283;51.330;12.374;2023-05-08T02:08:44;7.70;99.90
12438;DHT22;6283;51.330;12.374;2023-05-08T02:11:11;7.50;99.90
12438;DHT22;6283;51.330;12.374;2023-05-08T02:13:38;7.50;99.90
12438;DHT22;6283;51.330;12.374;2023-05-08T02:16:07;7.50;99.90
12438;DHT22;6283;51.330;12.374;2023-05-08T02:18:33;7.40;99.90
12438;DHT22;6283;51.330;12.374;2023-05-08T02:21:02;7.50;99.90
12438;DHT22;6283;51.330;12.374;2023-05-08T02:23:29;7.50;99.90
12438;DHT22;6283;51.330;12.374;2023-05-08T02:25:56;7.50;99.90
12438;DHT22;6283;51.330;12.374;2023-05-08T02:28:22;7.50;99.90
12438;DHT22;6283;51.330;12.374;2023-05-08T02:30:50;7.20;99.90
12438;DHT22;6283;51.330;12.374;2023-05-08T02:33:17;7.40;99.90
12438;DHT22;6283;51.330;12.374;2023-05-08T02:35:44;7.40;99.90
12438;DHT22;6283;51.330;12.374;2023-05-08T02:38:12;7.30;99.90
12438;DHT22;6283;51.330;12.374;2023-05-08T02:40:43;7.30;99.90
12438;DHT22;6283;51.330;12.374;2023-05-08T02:43:10;7.20;99.90
12438;DHT22;6283;51.330;12.374;2023-05-08T02:45:40;7.10;99.90
12438;DHT22;6283;51.330;12.374;2023-05-08T02:48:32;7.30;99.90
12438;DHT22;6283;51.330;12.374;2023-05-08T02:51:38;7.00;99.90
12438;DHT22;6283;51.330;12.374;2023-05-08T02:54:18;7.10;99.90
12438;DHT22;6283;51.330;12.374;2023-05-08T02:56:59;7.00;99.90
12438;DHT22;6283;51.330;12.374;2023-05-08T02:59:38;7.10;99.90
12438;DHT22;6283;51.330;12.374;2023-05-08T03:02:16;7.00;99.90
12438;DHT22;6283;51.330;12.374;2023-05-08T03:04:50;7.20;99.90
12438;DHT22;6283;51.330;12.374;2023-05-08T03:07:20;7.20;99.90
12438;DHT22;6283;51.330;12.374;2023-05-08T03:09:51;7.00;99.90
12438;DHT22;6283;51.330;12.374;2023-05-08T03:12:22;6.80;99.90
12438;DHT22;6283;51.330;12.374;2023-05-08T03:15:20;6.90;99.90
12438;DHT22;6283;51.330;12.374;2023-05-08T03:17:52;6.90;99.90
12438;DHT22;6283;51.330;12.374;2023-05-08T03:20:20;6.90;99.90
12438;DHT22;6283;51.330;12.374;2023-05-08T03:22:47;7.00;99.90
12438;DHT22;6283;51.330;12.374;2023-05-08T03:25:16;7.10;99.90
12438;DHT22;6283;51.330;12.374;2023-05-08T03:27:43;7.10;99.90
12438;DHT22;6283;51.330;12.374;2023-05-08T03:30:10;6.90;99.90
12438;DHT22;6283;51.330;12.374;2023-05-08T03:32:38;6.70;99.90
12438;DHT22;6283;51.330;12.374;2023-05-08T03:35:05;6.70;99.90
12438;DHT22;6283;51.330;12.374;2023-05-08T03:37:32;6.70;99.90
12438;DHT22;6283;51.330;12.374;2023-05-08T03:39:57;6.70;99.90
12438;DHT22;6283;51.330;12.374;2023-05-08T03:42:24;6.70;99.90
12438;DHT22;6283;51.330;12.374;2023-05-08T03:44:51;6.60;99.90
12438;DHT22;6283;51.330;12.374;2023-05-08T03:47:18;6.60;99.90
12438;DHT22;6283;51.330;12.374;2023-05-08T03:49:45;6.80;99.90
12438;DHT22;6283;51.330;12.374;2023-05-08T03:52:14;6.90;99.90
12438;DHT22;6283;51.330;12.374;2023-05-08T03:54:41;6.60;99.90
12438;DHT22;6283;51.330;12.374;2023-05-08T03:57:07;6.80;99.90
12438;DHT22;6283;51.330;12.374;2023-05-08T03:59:43;6.80;99.90
12438;DHT22;6283;51.330;12.374;2023-05-08T04:05:23;6.70;99.90
12438;DHT22;6283;51.330;12.374;2023-05-08T04:07:55;6.60;99.90
12438;DHT22;6283;51.330;12.374;2023-05-08T04:10:32;6.80;99.90
12438;DHT22;6283;51.330;12.374;2023-05-08T04:13:13;6.70;99.90
12438;DHT22;6283;51.330;12.374;2023-05-08T04:15:53;6.70;99.90
12438;DHT22;6283;51.330;12.374;2023-05-08T04:18:27;6.70;99.90
12438;DHT22;6283;51.330;12.374;2023-05-08T04:20:55;6.70;99.90
12438;DHT22;6283;51.330;12.374;2023-05-08T04:23:24;6.80;99.90
12438;DHT22;6283;51.330;12.374;2023-05-08T04:25:51;6.90;99.90
12438;DHT22;6283;51.330;12.374;2023-05-08T04:28:18;6.90;99.90
12438;DHT22;6283;51.330;12.374;2023-05-08T04:30:44;6.90;99.90
12438;DHT22;6283;51.330;12.374;2023-05-08T04:33:10;7.00;99.90
12438;DHT22;6283;51.330;12.374;2023-05-08T04:35:37;7.20;99.90
12438;DHT22;6283;51.330;12.374;2023-05-08T04:38:02;7.30;99.90
12438;DHT22;6283;51.330;12.374;2023-05-08T04:40:28;7.00;99.90
12438;DHT22;6283;51.330;12.374;2023-05-08T04:42:56;7.30;99.90
12438;DHT22;6283;51.330;12.374;2023-05-08T04:45:22;7.20;99.90
12438;DHT22;6283;51.330;12.374;2023-05-08T04:47:48;7.30;99.90
12438;DHT22;6283;51.330;12.374;2023-05-08T04:50:14;7.10;99.90
12438;DHT22;6283;51.330;12.374;2023-05-08T04:52:39;7.10;99.90
12438;DHT22;6283;51.330;12.374;2023-05-08T04:55:06;7.30;99.90
12438;DHT22;6283;51.330;12.374;2023-05-08T04:57:32;7.40;99.90
12438;DHT22;6283;51.330;12.374;2023-05-08T04:59:58;7.20;99.90
12438;DHT22;6283;51.330;12.374;2023-05-08T05:02:26;7.60;99.90
12438;DHT22;6283;51.330;12.374;2023-05-08T05:04:55;7.50;99.90
12438;DHT22;6283;51.330;12.374;2023-05-08T05:07:23;7.60;99.90
12438;DHT22;6283;51.330;12.374;2023-05-08T05:09:49;7.80;99.90
12438;DHT22;6283;51.330;12.374;2023-05-08T05:12:14;7.70;99.90
12438;DHT22;6283;51.330;12.374;2023-05-08T05:14:40;7.70;99.90
12438;DHT22;6283;51.330;12.374;2023-05-08T05:17:06;7.70;99.90
12438;DHT22;6283;51.330;12.374;2023-05-08T05:19:31;7.90;99.90
12438;DHT22;6283;51.330;12.374;2023-05-08T05:21:57;7.90;99.90
12438;DHT22;6283;51.330;12.374;2023-05-08T05:24:23;7.90;99.90
12438;DHT22;6283;51.330;12.374;2023-05-08T05:26:48;8.10;99.90
12438;DHT22;6283;51.330;12.374;2023-05-08T05:29:14;8.10;99.90
12438;DHT22;6283;51.330;12.374;2023-05-08T05:31:39;8.10;99.90
12438;DHT22;6283;51.330;12.374;2023-05-08T05:34:05;8.30;99.90
12438;DHT22;6283;51.330;12.374;2023-05-08T05:36:31;8.20;99.90
12438;DHT22;6283;51.330;12.374;2023-05-08T05:38:56;8.30;99.90
12438;DHT22;6283;51.330;12.374;2023-05-08T05:41:22;8.50;99.90
12438;DHT22;6283;51.330;12.374;2023-05-08T05:43:48;8.80;99.90
12438;DHT22;6283;51.330;12.374;2023-05-08T05:46:14;8.80;99.90
12438;DHT22;6283;51.330;12.374;2023-05-08T05:48:40;8.80;99.90
12438;DHT22;6283;51.330;12.374;2023-05-08T05:51:05;8.90;99.90
12438;DHT22;6283;51.330;12.374;2023-05-08T05:53:31;9.20;99.90
12438;DHT22;6283;51.330;12.374;2023-05-08T05:55:57;9.10;99.90
12438;DHT22;6283;51.330;12.374;2023-05-08T05:58:22;8.90;99.90
12438;DHT22;6283;51.330;12.374;2023-05-08T06:00:48;9.20;99.90
12438;DHT22;6283;51.330;12.374;2023-05-08T06:03:13;9.30;99.90
12438;DHT22;6283;51.330;12.374;2023-05-08T06:05:41;9.20;99.90
12438;DHT22;6283;51.330;12.374;2023-05-08T06:08:07;9.50;99.90
12438;DHT22;6283;51.330;12.374;2023-05-08T06:10:33;9.50;99.90
12438;DHT22;6283;51.330;12.374;2023-05-08T06:12:59;9.40;99.90
12438;DHT22;6283;51.330;12.374;2023-05-08T06:15:25;9.50;99.90
12438;DHT22;6283;51.330;12.374;2023-05-08T06:17:54;9.70;95.60
12438;DHT22;6283;51.330;12.374;2023-05-08T06:20:19;10.00;91.60
12438;DHT22;6283;51.330;12.374;2023-05-08T06:22:45;10.10;82.50
12438;DHT22;6283;51.330;12.374;2023-05-08T06:25:11;10.10;73.20
12438;DHT22;6283;51.330;12.374;2023-05-08T06:27:37;10.00;62.80
12438;DHT22;6283;51.330;12.374;2023-05-08T06:30:03;10.30;56.20
12438;DHT22;6283;51.330;12.374;2023-05-08T06:32:32;10.40;51.90
12438;DHT22;6283;51.330;12.374;2023-05-08T06:34:57;10.70;46.30
12438;DHT22;6283;51.330;12.374;2023-05-08T06:37:23;10.50;41.30
12438;DHT22;6283;51.330;12.374;2023-05-08T06:39:49;10.70;34.40
12438;DHT22;6283;51.330;12.374;2023-05-08T06:42:14;10.80;29.50
12438;DHT22;6283;51.330;12.374;2023-05-08T06:44:40;10.80;28.60
12438;DHT22;6283;51.330;12.374;2023-05-08T06:47:06;10.90;26.50
12438;DHT22;6283;51.330;12.374;2023-05-08T06:49:35;11.10;23.80
12438;DHT22;6283;51.330;12.374;2023-05-08T06:52:00;11.20;20.40
12438;DHT22;6283;51.330;12.374;2023-05-08T06:54:26;11.30;18.50
12438;DHT22;6283;51.330;12.374;2023-05-08T06:56:52;11.20;16.30
12438;DHT22;6283;51.330;12.374;2023-05-08T06:59:19;11.60;11.50
12438;DHT22;6283;51.330;12.374;2023-05-08T07:01:44;11.50;7.40
12438;DHT22;6283;51.330;12.374;2023-05-08T07:04:10;11.70;5.20
12438;DHT22;6283;51.330;12.374;2023-05-08T07:06:36;11.70;14.90
12438;DHT22;6283;51.330;12.374;2023-05-08T07:09:01;11.80;1.00
12438;DHT22;6283;51.330;12.374;2023-05-08T07:11:27;12.00;1.00
12438;DHT22;6283;51.330;12.374;2023-05-08T07:13:53;12.20;1.00
12438;DHT22;6283;51.330;12.374;2023-05-08T07:16:18;12.20;1.00
12438;DHT22;6283;51.330;12.374;2023-05-08T07:18:44;12.20;1.00
12438;DHT22;6283;51.330;12.374;2023-05-08T07:21:10;12.60;1.00
12438;DHT22;6283;51.330;12.374;2023-05-08T07:23:35;12.50;1.00
12438;DHT22;6283;51.330;12.374;2023-05-08T07:26:01;12.60;1.00
12438;DHT22;6283;51.330;12.374;2023-05-08T07:28:27;12.60;1.00
12438;DHT22;6283;51.330;12.374;2023-05-08T07:30:53;12.70;1.00
12438;DHT22;6283;51.330;12.374;2023-05-08T07:33:18;12.80;1.00
12438;DHT22;6283;51.330;12.374;2023-05-08T07:35:44;12.80;1.00
12438;DHT22;6283;51.330;12.374;2023-05-08T07:38:12;13.00;1.00
12438;DHT22;6283;51.330;12.374;2023-05-08T07:40:38;13.00;1.00
12438;DHT22;6283;51.330;12.374;2023-05-08T07:43:04;13.20;1.00
12438;DHT22;6283;51.330;12.374;2023-05-08T07:45:29;13.20;1.00
12438;DHT22;6283;51.330;12.374;2023-05-08T07:47:57;13.30;1.00
12438;DHT22;6283;51.330;12.374;2023-05-08T07:50:25;13.40;1.00
12438;DHT22;6283;51.330;12.374;2023-05-08T07:52:51;13.70;1.00
12438;DHT22;6283;51.330;12.374;2023-05-08T07:55:18;13.70;1.00
12438;DHT22;6283;51.330;12.374;2023-05-08T07:57:43;13.90;1.00
12438;DHT22;6283;51.330;12.374;2023-05-08T08:00:11;14.30;1.00
12438;DHT22;6283;51.330;12.374;2023-05-08T08:02:37;14.30;1.00
12438;DHT22;6283;51.330;12.374;2023-05-08T08:05:04;14.70;1.00
12438;DHT22;6283;51.330;12.374;2023-05-08T08:07:30;14.80;1.00
12438;DHT22;6283;51.330;12.374;2023-05-08T08:09:57;15.00;1.00
12438;DHT22;6283;51.330;12.374;2023-05-08T08:12:23;15.00;1.00
12438;DHT22;6283;51.330;12.374;2023-05-08T08:14:48;15.10;1.00
12438;DHT22;6283;51.330;12.374;2023-05-08T08:17:14;15.20;1.00
12438;DHT22;6283;51.330;12.374;2023-05-08T08:19:40;15.30;1.00
12438;DHT22;6283;51.330;12.374;2023-05-08T08:22:05;15.20;1.00
12438;DHT22;6283;51.330;12.374;2023-05-08T08:24:31;15.20;1.00
12438;DHT22;6283;51.330;12.374;2023-05-08T08:26:57;15.10;1.00
12438;DHT22;6283;51.330;12.374;2023-05-08T08:29:22;15.20;1.00
12438;DHT22;6283;51.330;12.374;2023-05-08T08:31:48;15.20;1.00
12438;DHT22;6283;51.330;12.374;2023-05-08T08:34:14;15.30;1.00
12438;DHT22;6283;51.330;12.374;2023-05-08T08:36:39;15.20;1.00
12438;DHT22;6283;51.330;12.374;2023-05-08T08:39:05;15.20;1.00
12438;DHT22;6283;51.330;12.374;2023-05-08T08:41:32;15.20;1.00
12438;DHT22;6283;51.330;12.374;2023-05-08T08:43:57;15.30;1.00
12438;DHT22;6283;51.330;12.374;2023-05-08T08:46:25;15.00;1.00
12438;DHT22;6283;51.330;12.374;2023-05-08T08:48:54;15.10;1.00
12438;DHT22;6283;51.330;12.374;2023-05-08T08:52:01;15.10;1.00
12438;DHT22;6283;51.330;12.374;2023-05-08T08:54:29;14.90;1.00
12438;DHT22;6283;51.330;12.374;2023-05-08T08:57:00;14.90;1.00
12438;DHT22;6283;51.330;12.374;2023-05-08T08:59:27;14.90;1.00
12438;DHT22;6283;51.330;12.374;2023-05-08T09:02:00;15.00;1.00
12438;DHT22;6283;51.330;12.374;2023-05-08T09:04:30;15.00;1.00
12438;DHT22;6283;51.330;12.374;2023-05-08T09:06:57;15.10;1.00
12438;DHT22;6283;51.330;12.374;2023-05-08T09:09:23;15.20;1.00
12438;DHT22;6283;51.330;12.374;2023-05-08T09:11:51;15.30;1.00
12438;DHT22;6283;51.330;12.374;2023-05-08T09:14:16;15.30;1.00
12438;DHT22;6283;51.330;12.374;2023-05-08T09:16:42;15.40;1.00
12438;DHT22;6283;51.330;12.374;2023-05-08T09:19:09;15.30;1.00
12438;DHT22;6283;51.330;12.374;2023-05-08T09:21:37;15.30;1.00
12438;DHT22;6283;51.330;12.374;2023-05-08T09:24:04;15.30;1.00
12438;DHT22;6283;51.330;12.374;2023-05-08T09:26:37;15.30;1.00
12438;DHT22;6283;51.330;12.374;2023-05-08T09:29:17;15.30;1.00
12438;DHT22;6283;51.330;12.374;2023-05-08T09:31:48;15.40;1.00
12438;DHT22;6283;51.330;12.374;2023-05-08T09:34:25;15.40;1.00
12438;DHT22;6283;51.330;12.374;2023-05-08T09:36:53;15.50;1.00
12438;DHT22;6283;51.330;12.374;2023-05-08T09:39:24;15.60;1.00
12438;DHT22;6283;51.330;12.374;2023-05-08T09:42:00;15.60;1.00
12438;DHT22;6283;51.330;12.374;2023-05-08T09:44:26;15.70;1.00
12438;DHT22;6283;51.330;12.374;2023-05-08T09:47:46;15.80;1.00
12438;DHT22;6283;51.330;12.374;2023-05-08T09:52:31;15.80;1.00
12438;DHT22;6283;51.330;12.374;2023-05-08T09:57:24;16.00;1.00
12438;DHT22;6283;51.330;12.374;2023-05-08T09:59:49;16.10;1.00
12438;DHT22;6283;51.330;12.374;2023-05-08T10:02:15;16.10;1.00
12438;DHT22;6283;51.330;12.374;2023-05-08T10:04:41;16.10;1.00
12438;DHT22;6283;51.330;12.374;2023-05-08T10:07:07;16.20;1.00
12438;DHT22;6283;51.330;12.374;2023-05-08T10:09:33;16.30;1.00
12438;DHT22;6283;51.330;12.374;2023-05-08T10:11:58;16.30;1.00
12438;DHT22;6283;51.330;12.374;2023-05-08T10:14:24;16.40;1.00
12438;DHT22;6283;51.330;12.374;2023-05-08T10:16:51;16.50;1.00
12438;DHT22;6283;51.330;12.374;2023-05-08T10:19:22;16.60;1.00
12438;DHT22;6283;51.330;12.374;2023-05-08T10:21:53;16.70;1.00
12438;DHT22;6283;51.330;12.374;2023-05-08T10:24:22;16.80;1.00
12438;DHT22;6283;51.330;12.374;2023-05-08T10:27:12;16.90;1.00
12438;DHT22;6283;51.330;12.374;2023-05-08T10:29:55;17.00;1.00
12438;DHT22;6283;51.330;12.374;2023-05-08T10:32:22;17.10;1.00
12438;DHT22;6283;51.330;12.374;2023-05-08T10:34:52;17.10;1.00
12438;DHT22;6283;51.330;12.374;2023-05-08T10:37:18;17.20;1.00
12438;DHT22;6283;51.330;12.374;2023-05-08T10:39:44;17.30;1.00
12438;DHT22;6283;51.330;12.374;2023-05-08T10:42:14;17.30;1.00
12438;DHT22;6283;51.330;12.374;2023-05-08T10:44:39;17.30;1.00
12438;DHT22;6283;51.330;12.374;2023-05-08T10:48:07;17.30;1.00
12438;DHT22;6283;51.330;12.374;2023-05-08T10:55:50;17.70;1.00
12438;DHT22;6283;51.330;12.374;2023-05-08T10:58:28;17.80;1.00
12438;DHT22;6283;51.330;12.374;2023-05-08T11:03:29;17.90;1.00
12438;DHT22;6283;51.330;12.374;2023-05-08T11:05:57;17.80;1.00
12438;DHT22;6283;51.330;12.374;2023-05-08T11:08:24;17.70;1.00
12438;DHT22;6283;51.330;12.374;2023-05-08T11:11:04;17.70;1.00
12438;DHT22;6283;51.330;12.374;2023-05-08T11:13:37;17.80;1.00
12438;DHT22;6283;51.330;12.374;2023-05-08T11:16:05;17.90;1.00
12438;DHT22;6283;51.330;12.374;2023-05-08T11:18:31;18.00;1.00
12438;DHT22;6283;51.330;12.374;2023-05-08T11:20:58;18.20;1.00
12438;DHT22;6283;51.330;12.374;2023-05-08T11:23:31;18.50;1.00
12438;DHT22;6283;51.330;12.374;2023-05-08T11:26:03;18.80;1.00
12438;DHT22;6283;51.330;12.374;2023-05-08T11:28:38;19.00;1.00
12438;DHT22;6283;51.330;12.374;2023-05-08T11:31:06;19.20;1.00
12438;DHT22;6283;51.330;12.374;2023-05-08T11:33:36;19.40;1.00
12438;DHT22;6283;51.330;12.374;2023-05-08T11:36:15;19.50;1.00
12438;DHT22;6283;51.330;12.374;2023-05-08T11:38:42;19.60;1.00
12438;DHT22;6283;51.330;12.374;2023-05-08T11:41:19;19.90;1.00
12438;DHT22;6283;51.330;12.374;2023-05-08T11:46:42;20.60;1.00
12438;DHT22;6283;51.330;12.374;2023-05-08T11:49:14;20.90;1.00
12438;DHT22;6283;51.330;12.374;2023-05-08T11:51:50;21.10;1.00
12438;DHT22;6283;51.330;12.374;2023-05-08T11:54:20;21.30;1.00
12438;DHT22;6283;51.330;12.374;2023-05-08T11:56:47;21.50;1.00
12438;DHT22;6283;51.330;12.374;2023-05-08T11:59:14;21.60;1.00
12438;DHT22;6283;51.330;12.374;2023-05-08T12:01:40;21.70;1.00
12438;DHT22;6283;51.330;12.374;2023-05-08T12:04:08;21.80;1.00
12438;DHT22;6283;51.330;12.374;2023-05-08T12:06:35;22.00;1.00
12438;DHT22;6283;51.330;12.374;2023-05-08T12:09:03;22.20;1.00
12438;DHT22;6283;51.330;12.374;2023-05-08T12:11:34;22.40;1.00
12438;DHT22;6283;51.330;12.374;2023-05-08T12:13:59;22.80;1.00
12438;DHT22;6283;51.330;12.374;2023-05-08T12:16:25;23.20;1.00
12438;DHT22;6283;51.330;12.374;2023-05-08T12:18:51;23.40;1.00
12438;DHT22;6283;51.330;12.374;2023-05-08T12:21:18;23.60;1.00
12438;DHT22;6283;51.330;12.374;2023-05-08T12:23:45;23.60;1.00
12438;DHT22;6283;51.330;12.374;2023-05-08T12:26:11;23.70;1.00
12438;DHT22;6283;51.330;12.374;2023-05-08T12:28:37;23.80;1.00
12438;DHT22;6283;51.330;12.374;2023-05-08T12:31:03;24.00;1.00
12438;DHT22;6283;51.330;12.374;2023-05-08T12:33:29;24.30;1.00
12438;DHT22;6283;51.330;12.374;2023-05-08T12:35:55;24.40;1.00
12438;DHT22;6283;51.330;12.374;2023-05-08T12:38:25;24.50;1.00
12438;DHT22;6283;51.330;12.374;2023-05-08T12:40:52;24.60;1.00
12438;DHT22;6283;51.330;12.374;2023-05-08T12:43:20;24.70;1.00
12438;DHT22;6283;51.330;12.374;2023-05-08T12:45:46;24.80;1.00
12438;DHT22;6283;51.330;12.374;2023-05-08T12:48:15;25.00;1.00
12438;DHT22;6283;51.330;12.374;2023-05-08T12:50:43;25.20;1.00
12438;DHT22;6283;51.330;12.374;2023-05-08T12:53:11;25.40;1.00
12438;DHT22;6283;51.330;12.374;2023-05-08T12:55:39;25.40;1.00
12438;DHT22;6283;51.330;12.374;2023-05-08T12:58:07;25.50;1.00
12438;DHT22;6283;51.330;12.374;2023-05-08T13:00:40;25.70;1.00
12438;DHT22;6283;51.330;12.374;2023-05-08T13:03:08;25.80;1.00
12438;DHT22;6283;51.330;12.374;2023-05-08T13:05:44;26.00;1.00
12438;DHT22;6283;51.330;12.374;2023-05-08T13:08:10;26.20;1.00
12438;DHT22;6283;51.330;12.374;2023-05-08T13:10:51;26.40;1.00
12438;DHT22;6283;51.330;12.374;2023-05-08T13:13:20;26.60;1.00
12438;DHT22;6283;51.330;12.374;2023-05-08T13:15:47;26.60;1.00
12438;DHT22;6283;51.330;12.374;2023-05-08T13:18:13;26.60;1.00
12438;DHT22;6283;51.330;12.374;2023-05-08T13:20:40;26.60;1.00
12438;DHT22;6283;51.330;12.374;2023-05-08T13:23:06;26.60;1.00
12438;DHT22;6283;51.330;12.374;2023-05-08T13:25:33;26.60;1.00
12438;DHT22;6283;51.330;12.374;2023-05-08T13:28:00;26.80;1.00
12438;DHT22;6283;51.330;12.374;2023-05-08T13:30:25;27.00;1.00
12438;DHT22;6283;51.330;12.374;2023-05-08T13:32:52;27.10;1.00
12438;DHT22;6283;51.330;12.374;2023-05-08T13:35:18;27.20;1.00
12438;DHT22;6283;51.330;12.374;2023-05-08T13:37:44;27.30;1.00
12438;DHT22;6283;51.330;12.374;2023-05-08T13:40:10;27.50;1.00
12438;DHT22;6283;51.330;12.374;2023-05-08T13:42:36;27.60;1.00
12438;DHT22;6283;51.330;12.374;2023-05-08T13:45:06;27.70;1.00
12438;DHT22;6283;51.330;12.374;2023-05-08T13:47:31;27.80;1.00
12438;DHT22;6283;51.330;12.374;2023-05-08T13:49:57;27.80;1.00
12438;DHT22;6283;51.330;12.374;2023-05-08T13:52:23;27.90;1.00
12438;DHT22;6283;51.330;12.374;2023-05-08T13:54:49;28.00;1.00
12438;DHT22;6283;51.330;12.374;2023-05-08T13:57:14;28.10;1.00
12438;DHT22;6283;51.330;12.374;2023-05-08T13:59:40;28.10;1.00
12438;DHT22;6283;51.330;12.374;2023-05-08T14:02:05;28.20;1.00
12438;DHT22;6283;51.330;12.374;2023-05-08T14:04:31;28.20;1.00
12438;DHT22;6283;51.330;12.374;2023-05-08T14:06:57;28.00;1.00
12438;DHT22;6283;51.330;12.374;2023-05-08T14:09:22;28.00;1.00
12438;DHT22;6283;51.330;12.374;2023-05-08T14:11:48;27.90;1.00
12438;DHT22;6283;51.330;12.374;2023-05-08T14:14:14;28.00;1.00
12438;DHT22;6283;51.330;12.374;2023-05-08T14:16:39;28.10;1.00
12438;DHT22;6283;51.330;12.374;2023-05-08T14:19:05;28.10;1.00
12438;DHT22;6283;51.330;12.374;2023-05-08T14:21:31;28.20;1.00
12438;DHT22;6283;51.330;12.374;2023-05-08T14:23:57;28.10;1.00
12438;DHT22;6283;51.330;12.374;2023-05-08T14:26:22;28.10;1.00
12438;DHT22;6283;51.330;12.374;2023-05-08T14:28:48;27.80;1.00
12438;DHT22;6283;51.330;12.374;2023-05-08T14:31:14;27.50;1.00
12438;DHT22;6283;51.330;12.374;2023-05-08T14:33:39;27.10;1.00
12438;DHT22;6283;51.330;12.374;2023-05-08T14:36:05;26.80;1.00
12438;DHT22;6283;51.330;12.374;2023-05-08T14:38:31;26.60;1.00
12438;DHT22;6283;51.330;12.374;2023-05-08T14:40:57;26.30;1.00
12438;DHT22;6283;51.330;12.374;2023-05-08T14:43:22;26.10;1.00
12438;DHT22;6283;51.330;12.374;2023-05-08T14:45:48;25.90;1.00
12438;DHT22;6283;51.330;12.374;2023-05-08T14:48:14;25.70;1.00
12438;DHT22;6283;51.330;12.374;2023-05-08T14:50:40;25.60;1.00
12438;DHT22;6283;51.330;12.374;2023-05-08T14:53:05;25.50;1.00
12438;DHT22;6283;51.330;12.374;2023-05-08T14:55:31;25.40;1.00
12438;DHT22;6283;51.330;12.374;2023-05-08T14:57:57;25.20;1.00
12438;DHT22;6283;51.330;12.374;2023-05-08T15:00:23;25.10;1.00
12438;DHT22;6283;51.330;12.374;2023-05-08T15:02:48;24.90;1.00
12438;DHT22;6283;51.330;12.374;2023-05-08T15:05:14;24.80;1.00
12438;DHT22;6283;51.330;12.374;2023-05-08T15:07:40;24.70;1.00
12438;DHT22;6283;51.330;12.374;2023-05-08T15:10:06;24.50;1.00
12438;DHT22;6283;51.330;12.374;2023-05-08T15:12:32;24.30;1.00
12438;DHT22;6283;51.330;12.374;2023-05-08T15:14:58;24.20;1.00
12438;DHT22;6283;51.330;12.374;2023-05-08T15:17:24;24.10;1.00
12438;DHT22;6283;51.330;12.374;2023-05-08T15:19:50;24.00;1.00
12438;DHT22;6283;51.330;12.374;2023-05-08T15:22:15;23.90;1.00
12438;DHT22;6283;51.330;12.374;2023-05-08T15:24:42;23.80;1.00
12438;DHT22;6283;51.330;12.374;2023-05-08T15:27:08;23.80;1.00
12438;DHT22;6283;51.330;12.374;2023-05-08T15:29:35;23.90;1.00
12438;DHT22;6283;51.330;12.374;2023-05-08T15:32:00;24.00;1.00
12438;DHT22;6283;51.330;12.374;2023-05-08T15:34:26;24.10;1.00
12438;DHT22;6283;51.330;12.374;2023-05-08T15:36:52;24.30;1.00
12438;DHT22;6283;51.330;12.374;2023-05-08T15:39:17;24.30;1.00
12438;DHT22;6283;51.330;12.374;2023-05-08T15:41:43;24.30;1.00
12438;DHT22;6283;51.330;12.374;2023-05-08T15:44:09;24.10;1.00
12438;DHT22;6283;51.330;12.374;2023-05-08T15:46:35;24.00;1.00
12438;DHT22;6283;51.330;12.374;2023-05-08T15:49:01;23.80;1.00
12438;DHT22;6283;51.330;12.374;2023-05-08T15:51:26;23.70;1.00
12438;DHT22;6283;51.330;12.374;2023-05-08T15:53:53;23.70;1.00
12438;DHT22;6283;51.330;12.374;2023-05-08T15:56:20;23.70;1.00
12438;DHT22;6283;51.330;12.374;2023-05-08T15:58:49;24.00;1.00
12438;DHT22;6283;51.330;12.374;2023-05-08T16:01:14;24.10;1.00
12438;DHT22;6283;51.330;12.374;2023-05-08T16:03:40;24.40;1.00
12438;DHT22;6283;51.330;12.374;2023-05-08T16:06:06;24.60;1.00
12438;DHT22;6283;51.330;12.374;2023-05-08T16:08:31;24.80;1.00
12438;DHT22;6283;51.330;12.374;2023-05-08T16:10:57;24.80;1.00
12438;DHT22;6283;51.330;12.374;2023-05-08T16:13:23;24.70;1.00
12438;DHT22;6283;51.330;12.374;2023-05-08T16:15:48;24.60;1.00
12438;DHT22;6283;51.330;12.374;2023-05-08T16:18:14;24.40;1.00
12438;DHT22;6283;51.330;12.374;2023-05-08T16:20:40;24.30;1.00
12438;DHT22;6283;51.330;12.374;2023-05-08T16:23:06;24.20;1.00
12438;DHT22;6283;51.330;12.374;2023-05-08T16:25:32;24.10;1.00